Terminal Aerodrome Forecast
Issued by NWS

Home | Current Version | Previous Version | Text Only | Print | Product List | Glossary On
Versions: 1 2 3 4 5 6 7 8 9 10 11 12 13 14 15 16 17 18 19 20 21 22 23 24
000
FTUS42 KGSP 280537
TAFHKY
TAF
KHKY 280537Z 2806/2906 21005KT P6SM OVC070
     FM280900 19003KT P6SM -RA OVC070
     FM281400 23004KT P6SM -RA OVC015
     FM281600 00000KT P6SM -RA OVC007
     FM282000 00000KT P6SM -RA OVC019
     FM282300 00000KT P6SM -RA OVC028=

USA.gov is the U.S. government's official web portal to all federal, state and local government web resources and services.